sensor_id;sensor_type;location;lat;lon;timestamp;temperature;humidity
25923;DHT22;13725;51.170;4.442;2022-12-15T00:02:03;-2.40;99.90
25923;DHT22;13725;51.170;4.442;2022-12-15T00:04:48;-2.40;99.90
25923;DHT22;13725;51.170;4.442;2022-12-15T00:07:32;-2.50;99.90
25923;DHT22;13725;51.170;4.442;2022-12-15T00:10:17;-2.40;99.90
25923;DHT22;13725;51.170;4.442;2022-12-15T00:13:01;-2.40;99.90
25923;DHT22;13725;51.170;4.442;2022-12-15T00:15:46;-2.40;99.90
25923;DHT22;13725;51.170;4.442;2022-12-15T00:18:31;-2.50;99.90
25923;DHT22;13725;51.170;4.442;2022-12-15T00:21:15;-2.50;99.90
25923;DHT22;13725;51.170;4.442;2022-12-15T00:24:00;-2.50;99.90
25923;DHT22;13725;51.170;4.442;2022-12-15T00:26:44;-2.50;99.90
25923;DHT22;13725;51.170;4.442;2022-12-15T00:29:30;-2.50;99.90
25923;DHT22;13725;51.170;4.442;2022-12-15T00:32:14;-2.50;99.90
25923;DHT22;13725;51.170;4.442;2022-12-15T00:34:59;-2.50;99.90
25923;DHT22;13725;51.170;4.442;2022-12-15T00:37:43;-2.50;99.90
25923;DHT22;13725;51.170;4.442;2022-12-15T00:40:28;-2.60;99.90
25923;DHT22;13725;51.170;4.442;2022-12-15T00:42:53;-2.60;99.90
25923;DHT22;13725;51.170;4.442;2022-12-15T00:45:19;-2.60;99.90
25923;DHT22;13725;51.170;4.442;2022-12-15T00:47:45;-2.60;99.90
25923;DHT22;13725;51.170;4.442;2022-12-15T00:50:10;-2.70;99.90
25923;DHT22;13725;51.170;4.442;2022-12-15T00:52:55;-2.70;99.90
25923;DHT22;13725;51.170;4.442;2022-12-15T00:55:39;-2.70;99.90
25923;DHT22;13725;51.170;4.442;2022-12-15T00:58:23;-2.70;99.90
25923;DHT22;13725;51.170;4.442;2022-12-15T01:01:08;-2.70;99.90
25923;DHT22;13725;51.170;4.442;2022-12-15T01:03:53;-2.70;99.90
25923;DHT22;13725;51.170;4.442;2022-12-15T01:06:38;-2.80;99.90
25923;DHT22;13725;51.170;4.442;2022-12-15T01:09:22;-2.80;99.90
25923;DHT22;13725;51.170;4.442;2022-12-15T01:12:07;-2.80;99.90
25923;DHT22;13725;51.170;4.442;2022-12-15T01:14:51;-2.80;99.90
25923;DHT22;13725;51.170;4.442;2022-12-15T01:17:36;-2.80;99.90
25923;DHT22;13725;51.170;4.442;2022-12-15T01:20:20;-2.70;99.90
25923;DHT22;13725;51.170;4.442;2022-12-15T01:22:52;-2.80;99.90
25923;DHT22;13725;51.170;4.442;2022-12-15T01:25:19;-2.70;99.90
25923;DHT22;13725;51.170;4.442;2022-12-15T01:27:45;-2.80;99.90
25923;DHT22;13725;51.170;4.442;2022-12-15T01:30:13;-2.80;99.90
25923;DHT22;13725;51.170;4.442;2022-12-15T01:32:40;-2.80;99.90
25923;DHT22;13725;51.170;4.442;2022-12-15T01:35:06;-2.80;99.90
25923;DHT22;13725;51.170;4.442;2022-12-15T01:37:34;-2.80;99.90
25923;DHT22;13725;51.170;4.442;2022-12-15T01:40:00;-2.70;99.90
25923;DHT22;13725;51.170;4.442;2022-12-15T01:42:45;-2.70;99.90
25923;DHT22;13725;51.170;4.442;2022-12-15T01:47:50;-2.80;99.90
25923;DHT22;13725;51.170;4.442;2022-12-15T01:50:18;-2.80;99.90
25923;DHT22;13725;51.170;4.442;2022-12-15T01:52:45;-2.80;99.90
25923;DHT22;13725;51.170;4.442;2022-12-15T01:55:12;-2.70;99.90
25923;DHT22;13725;51.170;4.442;2022-12-15T01:57:38;-2.70;99.90
25923;DHT22;13725;51.170;4.442;2022-12-15T02:00:06;-2.80;99.90
25923;DHT22;13725;51.170;4.442;2022-12-15T02:02:34;-2.80;99.90
25923;DHT22;13725;51.170;4.442;2022-12-15T02:05:03;-2.80;99.90
25923;DHT22;13725;51.170;4.442;2022-12-15T02:07:29;-2.70;99.90
25923;DHT22;13725;51.170;4.442;2022-12-15T02:09:57;-2.70;99.90
25923;DHT22;13725;51.170;4.442;2022-12-15T02:17:48;-2.60;99.90
25923;DHT22;13725;51.170;4.442;2022-12-15T02:20:37;-2.70;99.90
25923;DHT22;13725;51.170;4.442;2022-12-15T02:31:44;-2.70;99.90
25923;DHT22;13725;51.170;4.442;2022-12-15T02:34:32;-2.70;99.90
25923;DHT22;13725;51.170;4.442;2022-12-15T02:37:16;-2.70;99.90
25923;DHT22;13725;51.170;4.442;2022-12-15T02:39:43;-2.80;99.90
25923;DHT22;13725;51.170;4.442;2022-12-15T02:42:09;-2.80;99.90
25923;DHT22;13725;51.170;4.442;2022-12-15T02:44:39;-2.80;99.90
25923;DHT22;13725;51.170;4.442;2022-12-15T02:53:30;-2.90;99.90
25923;DHT22;13725;51.170;4.442;2022-12-15T02:56:47;-2.90;99.90
25923;DHT22;13725;51.170;4.442;2022-12-15T02:59:16;-2.90;99.90
25923;DHT22;13725;51.170;4.442;2022-12-15T03:02:00;-3.00;99.90
25923;DHT22;13725;51.170;4.442;2022-12-15T03:04:27;-3.00;99.90
25923;DHT22;13725;51.170;4.442;2022-12-15T03:07:13;-3.00;99.90
25923;DHT22;13725;51.170;4.442;2022-12-15T03:09:39;-2.90;99.90
25923;DHT22;13725;51.170;4.442;2022-12-15T03:12:05;-2.90;99.90
25923;DHT22;13725;51.170;4.442;2022-12-15T03:14:31;-3.00;99.90
25923;DHT22;13725;51.170;4.442;2022-12-15T03:16:57;-2.90;99.90
25923;DHT22;13725;51.170;4.442;2022-12-15T03:19:23;-3.00;99.90
25923;DHT22;13725;51.170;4.442;2022-12-15T03:21:49;-3.00;99.90
25923;DHT22;13725;51.170;4.442;2022-12-15T03:24:14;-3.00;99.90
25923;DHT22;13725;51.170;4.442;2022-12-15T03:26:40;-3.00;99.90
25923;DHT22;13725;51.170;4.442;2022-12-15T03:29:06;-3.00;99.90
25923;DHT22;13725;51.170;4.442;2022-12-15T03:31:31;-3.00;99.90
25923;DHT22;13725;51.170;4.442;2022-12-15T03:33:57;-3.00;99.90
25923;DHT22;13725;51.170;4.442;2022-12-15T03:36:23;-2.90;99.90
25923;DHT22;13725;51.170;4.442;2022-12-15T03:38:49;-2.90;99.90
25923;DHT22;13725;51.170;4.442;2022-12-15T03:41:14;-3.00;99.90
25923;DHT22;13725;51.170;4.442;2022-12-15T03:43:42;-3.10;99.90
25923;DHT22;13725;51.170;4.442;2022-12-15T03:46:08;-3.10;99.90
25923;DHT22;13725;51.170;4.442;2022-12-15T03:48:34;-3.10;99.90
25923;DHT22;13725;51.170;4.442;2022-12-15T03:51:00;-3.10;99.90
25923;DHT22;13725;51.170;4.442;2022-12-15T03:53:25;-3.10;99.90
25923;DHT22;13725;51.170;4.442;2022-12-15T03:55:51;-3.10;99.90
25923;DHT22;13725;51.170;4.442;2022-12-15T03:58:17;-3.10;99.90
25923;DHT22;13725;51.170;4.442;2022-12-15T04:00:43;-3.00;99.90
25923;DHT22;13725;51.170;4.442;2022-12-15T04:03:09;-3.00;99.90
25923;DHT22;13725;51.170;4.442;2022-12-15T04:05:36;-3.00;99.90
25923;DHT22;13725;51.170;4.442;2022-12-15T04:08:02;-3.10;99.90
25923;DHT22;13725;51.170;4.442;2022-12-15T04:10:31;-3.10;99.90
25923;DHT22;13725;51.170;4.442;2022-12-15T04:13:04;-3.20;99.90
25923;DHT22;13725;51.170;4.442;2022-12-15T04:15:31;-3.20;99.90
25923;DHT22;13725;51.170;4.442;2022-12-15T04:17:57;-3.10;99.90
25923;DHT22;13725;51.170;4.442;2022-12-15T04:20:23;-3.00;99.90
25923;DHT22;13725;51.170;4.442;2022-12-15T04:22:49;-3.00;99.90
25923;DHT22;13725;51.170;4.442;2022-12-15T04:25:20;-3.10;99.90
25923;DHT22;13725;51.170;4.442;2022-12-15T04:28:06;-3.10;99.90
25923;DHT22;13725;51.170;4.442;2022-12-15T04:30:53;-3.10;99.90
25923;DHT22;13725;51.170;4.442;2022-12-15T04:33:44;-3.20;99.90
25923;DHT22;13725;51.170;4.442;2022-12-15T04:36:29;-3.20;99.90
25923;DHT22;13725;51.170;4.442;2022-12-15T04:39:14;-3.20;99.90
25923;DHT22;13725;51.170;4.442;2022-12-15T04:42:00;-3.20;99.90
25923;DHT22;13725;51.170;4.442;2022-12-15T04:44:46;-3.20;99.90
25923;DHT22;13725;51.170;4.442;2022-12-15T04:47:31;-3.20;99.90
25923;DHT22;13725;51.170;4.442;2022-12-15T04:50:15;-3.20;99.90
25923;DHT22;13725;51.170;4.442;2022-12-15T04:53:11;-3.10;99.90
25923;DHT22;13725;51.170;4.442;2022-12-15T04:55:55;-3.20;99.90
25923;DHT22;13725;51.170;4.442;2022-12-15T04:58:39;-3.20;99.90
25923;DHT22;13725;51.170;4.442;2022-12-15T05:01:24;-3.20;99.90
25923;DHT22;13725;51.170;4.442;2022-12-15T05:04:08;-3.20;99.90
25923;DHT22;13725;51.170;4.442;2022-12-15T05:06:53;-3.20;99.90
25923;DHT22;13725;51.170;4.442;2022-12-15T05:09:37;-3.30;99.90
25923;DHT22;13725;51.170;4.442;2022-12-15T05:12:21;-3.30;99.90
25923;DHT22;13725;51.170;4.442;2022-12-15T05:15:06;-3.30;99.90
25923;DHT22;13725;51.170;4.442;2022-12-15T05:17:50;-3.30;99.90
25923;DHT22;13725;51.170;4.442;2022-12-15T05:20:34;-3.30;99.90
25923;DHT22;13725;51.170;4.442;2022-12-15T05:23:19;-3.40;99.90
25923;DHT22;13725;51.170;4.442;2022-12-15T05:26:03;-3.40;99.90
25923;DHT22;13725;51.170;4.442;2022-12-15T05:28:48;-3.30;99.90
25923;DHT22;13725;51.170;4.442;2022-12-15T05:31:33;-3.30;99.90
25923;DHT22;13725;51.170;4.442;2022-12-15T05:34:21;-3.30;99.90
25923;DHT22;13725;51.170;4.442;2022-12-15T05:36:48;-3.40;99.90
25923;DHT22;13725;51.170;4.442;2022-12-15T05:39:15;-3.30;99.90
25923;DHT22;13725;51.170;4.442;2022-12-15T05:41:40;-3.30;99.90
25923;DHT22;13725;51.170;4.442;2022-12-15T05:44:06;-3.30;99.90
25923;DHT22;13725;51.170;4.442;2022-12-15T05:46:32;-3.30;99.90
25923;DHT22;13725;51.170;4.442;2022-12-15T05:48:58;-3.30;99.90
25923;DHT22;13725;51.170;4.442;2022-12-15T05:51:23;-3.20;99.90
25923;DHT22;13725;51.170;4.442;2022-12-15T05:53:49;-3.20;99.90
25923;DHT22;13725;51.170;4.442;2022-12-15T05:56:15;-3.20;99.90
25923;DHT22;13725;51.170;4.442;2022-12-15T05:58:41;-3.20;99.90
25923;DHT22;13725;51.170;4.442;2022-12-15T06:01:13;-3.30;99.90
25923;DHT22;13725;51.170;4.442;2022-12-15T06:03:40;-3.30;99.90
25923;DHT22;13725;51.170;4.442;2022-12-15T06:06:07;-3.20;99.90
25923;DHT22;13725;51.170;4.442;2022-12-15T06:08:36;-3.20;99.90
25923;DHT22;13725;51.170;4.442;2022-12-15T06:11:02;-3.20;99.90
25923;DHT22;13725;51.170;4.442;2022-12-15T06:13:29;-3.20;99.90
25923;DHT22;13725;51.170;4.442;2022-12-15T06:16:12;-3.10;99.90
25923;DHT22;13725;51.170;4.442;2022-12-15T06:18:40;-3.10;99.90
25923;DHT22;13725;51.170;4.442;2022-12-15T06:21:11;-3.10;99.90
25923;DHT22;13725;51.170;4.442;2022-12-15T06:23:38;-3.10;99.90
25923;DHT22;13725;51.170;4.442;2022-12-15T06:26:25;-3.10;99.90
25923;DHT22;13725;51.170;4.442;2022-12-15T06:28:54;-3.10;99.90
25923;DHT22;13725;51.170;4.442;2022-12-15T06:31:20;-3.10;99.90
25923;DHT22;13725;51.170;4.442;2022-12-15T06:33:48;-3.10;99.90
25923;DHT22;13725;51.170;4.442;2022-12-15T06:36:15;-3.20;99.90
25923;DHT22;13725;51.170;4.442;2022-12-15T06:38:42;-3.20;99.90
25923;DHT22;13725;51.170;4.442;2022-12-15T06:41:10;-3.20;99.90
25923;DHT22;13725;51.170;4.442;2022-12-15T06:43:36;-3.20;99.90
25923;DHT22;13725;51.170;4.442;2022-12-15T06:46:03;-3.10;99.90
25923;DHT22;13725;51.170;4.442;2022-12-15T06:48:29;-3.10;99.90
25923;DHT22;13725;51.170;4.442;2022-12-15T06:50:55;-3.10;99.90
25923;DHT22;13725;51.170;4.442;2022-12-15T06:53:22;-3.20;99.90
25923;DHT22;13725;51.170;4.442;2022-12-15T06:55:49;-3.20;99.90
25923;DHT22;13725;51.170;4.442;2022-12-15T06:58:15;-3.20;99.90
25923;DHT22;13725;51.170;4.442;2022-12-15T07:00:43;-3.20;99.90
25923;DHT22;13725;51.170;4.442;2022-12-15T07:03:15;-3.20;99.90
25923;DHT22;13725;51.170;4.442;2022-12-15T07:05:42;-3.20;99.90
25923;DHT22;13725;51.170;4.442;2022-12-15T07:08:14;-3.20;99.90
25923;DHT22;13725;51.170;4.442;2022-12-15T07:10:43;-3.20;99.90
25923;DHT22;13725;51.170;4.442;2022-12-15T07:13:10;-3.20;99.90
25923;DHT22;13725;51.170;4.442;2022-12-15T07:15:38;-3.20;99.90
25923;DHT22;13725;51.170;4.442;2022-12-15T07:18:04;-3.20;99.90
25923;DHT22;13725;51.170;4.442;2022-12-15T07:20:30;-3.10;99.90
25923;DHT22;13725;51.170;4.442;2022-12-15T07:22:56;-3.20;99.90
25923;DHT22;13725;51.170;4.442;2022-12-15T07:25:22;-3.20;99.90
25923;DHT22;13725;51.170;4.442;2022-12-15T07:27:48;-3.20;99.90
25923;DHT22;13725;51.170;4.442;2022-12-15T07:30:14;-3.20;99.90
25923;DHT22;13725;51.170;4.442;2022-12-15T07:32:41;-3.20;99.90
25923;DHT22;13725;51.170;4.442;2022-12-15T07:35:09;-3.20;99.90
25923;DHT22;13725;51.170;4.442;2022-12-15T07:37:35;-3.10;99.90
25923;DHT22;13725;51.170;4.442;2022-12-15T07:40:03;-3.20;99.90
25923;DHT22;13725;51.170;4.442;2022-12-15T07:42:29;-3.20;99.90
25923;DHT22;13725;51.170;4.442;2022-12-15T07:44:55;-3.20;99.90
25923;DHT22;13725;51.170;4.442;2022-12-15T07:47:21;-3.20;99.90
25923;DHT22;13725;51.170;4.442;2022-12-15T07:49:46;-3.20;99.90
25923;DHT22;13725;51.170;4.442;2022-12-15T07:52:12;-3.10;99.90
25923;DHT22;13725;51.170;4.442;2022-12-15T07:54:39;-3.10;99.90
25923;DHT22;13725;51.170;4.442;2022-12-15T07:57:05;-3.10;99.90
25923;DHT22;13725;51.170;4.442;2022-12-15T07:59:34;-3.10;99.90
25923;DHT22;13725;51.170;4.442;2022-12-15T08:02:00;-2.90;99.90
25923;DHT22;13725;51.170;4.442;2022-12-15T08:04:29;-2.90;99.90
25923;DHT22;13725;51.170;4.442;2022-12-15T08:06:56;-2.80;99.90
25923;DHT22;13725;51.170;4.442;2022-12-15T08:09:22;-2.80;99.90
25923;DHT22;13725;51.170;4.442;2022-12-15T08:11:48;-2.60;99.90
25923;DHT22;13725;51.170;4.442;2022-12-15T08:14:15;-2.30;99.90
25923;DHT22;13725;51.170;4.442;2022-12-15T08:16:42;-1.50;99.90
25923;DHT22;13725;51.170;4.442;2022-12-15T08:19:11;-0.80;99.90
25923;DHT22;13725;51.170;4.442;2022-12-15T08:21:38;-0.10;99.90
25923;DHT22;13725;51.170;4.442;2022-12-15T08:24:06;0.70;99.90
25923;DHT22;13725;51.170;4.442;2022-12-15T08:26:32;1.90;99.90
25923;DHT22;13725;51.170;4.442;2022-12-15T08:29:03;2.90;99.90
25923;DHT22;13725;51.170;4.442;2022-12-15T08:31:30;3.90;99.90
25923;DHT22;13725;51.170;4.442;2022-12-15T08:33:58;4.30;99.90
25923;DHT22;13725;51.170;4.442;2022-12-15T08:36:24;4.40;99.90
25923;DHT22;13725;51.170;4.442;2022-12-15T08:38:50;4.50;99.90
25923;DHT22;13725;51.170;4.442;2022-12-15T08:41:21;4.70;99.90
25923;DHT22;13725;51.170;4.442;2022-12-15T08:43:48;5.00;99.90
25923;DHT22;13725;51.170;4.442;2022-12-15T08:46:20;5.10;99.90
25923;DHT22;13725;51.170;4.442;2022-12-15T08:48:46;5.30;99.90
25923;DHT22;13725;51.170;4.442;2022-12-15T08:51:13;5.70;99.90
25923;DHT22;13725;51.170;4.442;2022-12-15T08:53:38;6.20;99.90
25923;DHT22;13725;51.170;4.442;2022-12-15T08:56:09;6.60;99.90
25923;DHT22;13725;51.170;4.442;2022-12-15T08:58:37;7.00;99.90
25923;DHT22;13725;51.170;4.442;2022-12-15T09:01:05;7.50;99.90
25923;DHT22;13725;51.170;4.442;2022-12-15T09:03:32;7.90;99.90
25923;DHT22;13725;51.170;4.442;2022-12-15T09:06:18;8.30;99.90
25923;DHT22;13725;51.170;4.442;2022-12-15T09:08:45;8.40;99.90
25923;DHT22;13725;51.170;4.442;2022-12-15T09:11:11;8.70;99.90
25923;DHT22;13725;51.170;4.442;2022-12-15T09:13:37;8.90;99.90
25923;DHT22;13725;51.170;4.442;2022-12-15T09:16:06;9.10;99.90
25923;DHT22;13725;51.170;4.442;2022-12-15T09:18:33;9.10;99.90
25923;DHT22;13725;51.170;4.442;2022-12-15T09:21:03;9.10;99.90
25923;DHT22;13725;51.170;4.442;2022-12-15T09:23:29;9.30;99.90
25923;DHT22;13725;51.170;4.442;2022-12-15T09:26:21;9.40;99.90
25923;DHT22;13725;51.170;4.442;2022-12-15T09:28:48;9.50;99.90
25923;DHT22;13725;51.170;4.442;2022-12-15T09:31:16;9.80;99.90
25923;DHT22;13725;51.170;4.442;2022-12-15T09:33:45;10.00;99.90
25923;DHT22;13725;51.170;4.442;2022-12-15T09:36:11;10.30;99.90
25923;DHT22;13725;51.170;4.442;2022-12-15T09:38:39;10.40;99.90
25923;DHT22;13725;51.170;4.442;2022-12-15T09:43:56;10.10;99.90
25923;DHT22;13725;51.170;4.442;2022-12-15T09:47:03;9.80;99.90
25923;DHT22;13725;51.170;4.442;2022-12-15T09:50:00;9.70;99.90
25923;DHT22;13725;51.170;4.442;2022-12-15T09:52:34;9.80;99.90
25923;DHT22;13725;51.170;4.442;2022-12-15T09:55:22;9.80;99.90
25923;DHT22;13725;51.170;4.442;2022-12-15T09:57:54;10.10;99.90
25923;DHT22;13725;51.170;4.442;2022-12-15T10:00:23;10.30;99.90
25923;DHT22;13725;51.170;4.442;2022-12-15T10:08:18;11.50;99.90
25923;DHT22;13725;51.170;4.442;2022-12-15T10:11:10;11.70;99.90
25923;DHT22;13725;51.170;4.442;2022-12-15T10:14:01;11.70;99.90
25923;DHT22;13725;51.170;4.442;2022-12-15T10:16:59;11.70;99.90
25923;DHT22;13725;51.170;4.442;2022-12-15T10:22:07;11.70;99.80
25923;DHT22;13725;51.170;4.442;2022-12-15T10:24:35;10.90;99.50
25923;DHT22;13725;51.170;4.442;2022-12-15T10:30:04;10.10;99.90
25923;DHT22;13725;51.170;4.442;2022-12-15T10:35:14;9.90;99.90
25923;DHT22;13725;51.170;4.442;2022-12-15T10:37:40;10.10;99.90
25923;DHT22;13725;51.170;4.442;2022-12-15T10:40:07;10.50;99.90
25923;DHT22;13725;51.170;4.442;2022-12-15T10:42:47;10.30;99.90
25923;DHT22;13725;51.170;4.442;2022-12-15T10:45:37;10.30;99.90
25923;DHT22;13725;51.170;4.442;2022-12-15T10:48:04;10.20;99.90
25923;DHT22;13725;51.170;4.442;2022-12-15T10:50:32;10.30;99.90
25923;DHT22;13725;51.170;4.442;2022-12-15T10:52:58;10.60;99.90
25923;DHT22;13725;51.170;4.442;2022-12-15T10:58:01;11.90;99.90
25923;DHT22;13725;51.170;4.442;2022-12-15T11:00:29;12.80;99.90
25923;DHT22;13725;51.170;4.442;2022-12-15T11:02:57;13.70;98.10
25923;DHT22;13725;51.170;4.442;2022-12-15T11:05:24;14.30;96.20
25923;DHT22;13725;51.170;4.442;2022-12-15T11:08:32;14.70;94.80
25923;DHT22;13725;51.170;4.442;2022-12-15T11:10:56;14.90;93.90
25923;DHT22;13725;51.170;4.442;2022-12-15T11:13:41;15.20;92.90
25923;DHT22;13725;51.170;4.442;2022-12-15T11:16:17;15.40;91.60
25923;DHT22;13725;51.170;4.442;2022-12-15T11:18:54;15.60;91.10
25923;DHT22;13725;51.170;4.442;2022-12-15T11:24:17;16.60;87.00
25923;DHT22;13725;51.170;4.442;2022-12-15T11:32:25;17.90;82.20
25923;DHT22;13725;51.170;4.442;2022-12-15T11:34:52;18.30;79.50
25923;DHT22;13725;51.170;4.442;2022-12-15T11:49:07;20.10;73.10
25923;DHT22;13725;51.170;4.442;2022-12-15T11:51:44;20.20;71.60
25923;DHT22;13725;51.170;4.442;2022-12-15T11:54:43;19.90;70.80
25923;DHT22;13725;51.170;4.442;2022-12-15T12:00:07;19.50;70.30
25923;DHT22;13725;51.170;4.442;2022-12-15T12:05:42;19.10;70.80
25923;DHT22;13725;51.170;4.442;2022-12-15T12:11:39;18.50;71.30
25923;DHT22;13725;51.170;4.442;2022-12-15T12:17:05;17.40;73.10
25923;DHT22;13725;51.170;4.442;2022-12-15T12:19:46;16.90;73.70
25923;DHT22;13725;51.170;4.442;2022-12-15T12:22:29;16.40;74.30
25923;DHT22;13725;51.170;4.442;2022-12-15T12:25:16;15.90;74.40
25923;DHT22;13725;51.170;4.442;2022-12-15T12:27:53;16.10;75.50
25923;DHT22;13725;51.170;4.442;2022-12-15T12:30:22;16.20;73.30
25923;DHT22;13725;51.170;4.442;2022-12-15T12:33:11;16.30;73.60
25923;DHT22;13725;51.170;4.442;2022-12-15T12:35:49;16.60;74.20
25923;DHT22;13725;51.170;4.442;2022-12-15T12:39:02;16.70;74.30
25923;DHT22;13725;51.170;4.442;2022-12-15T12:43:37;16.80;74.10
25923;DHT22;13725;51.170;4.442;2022-12-15T12:46:29;16.10;75.20
25923;DHT22;13725;51.170;4.442;2022-12-15T12:51:41;14.60;78.30
25923;DHT22;13725;51.170;4.442;2022-12-15T12:57:32;13.20;82.60
25923;DHT22;13725;51.170;4.442;2022-12-15T13:07:32;12.50;84.70
25923;DHT22;13725;51.170;4.442;2022-12-15T13:10:18;12.70;84.90
25923;DHT22;13725;51.170;4.442;2022-12-15T13:12:55;12.50;83.80
25923;DHT22;13725;51.170;4.442;2022-12-15T13:17:55;12.10;85.90
25923;DHT22;13725;51.170;4.442;2022-12-15T13:20:24;11.80;87.40
25923;DHT22;13725;51.170;4.442;2022-12-15T13:22:51;11.30;90.10
25923;DHT22;13725;51.170;4.442;2022-12-15T13:25:32;10.80;91.30
25923;DHT22;13725;51.170;4.442;2022-12-15T13:28:02;10.40;93.30
25923;DHT22;13725;51.170;4.442;2022-12-15T13:30:36;9.90;94.90
25923;DHT22;13725;51.170;4.442;2022-12-15T13:33:17;9.40;96.90
25923;DHT22;13725;51.170;4.442;2022-12-15T13:35:45;9.10;98.60
25923;DHT22;13725;51.170;4.442;2022-12-15T13:38:17;8.90;99.90
25923;DHT22;13725;51.170;4.442;2022-12-15T13:40:51;8.80;99.90
25923;DHT22;13725;51.170;4.442;2022-12-15T13:43:39;8.70;99.90
25923;DHT22;13725;51.170;4.442;2022-12-15T13:46:19;8.50;99.90
25923;DHT22;13725;51.170;4.442;2022-12-15T13:48:52;8.20;99.90
25923;DHT22;13725;51.170;4.442;2022-12-15T13:51:44;8.10;99.90
25923;DHT22;13725;51.170;4.442;2022-12-15T13:54:23;8.30;99.90
25923;DHT22;13725;51.170;4.442;2022-12-15T13:57:04;8.80;99.90
25923;DHT22;13725;51.170;4.442;2022-12-15T14:00:00;9.20;99.90
25923;DHT22;13725;51.170;4.442;2022-12-15T14:02:34;9.30;99.90
25923;DHT22;13725;51.170;4.442;2022-12-15T14:08:07;9.50;99.90
25923;DHT22;13725;51.170;4.442;2022-12-15T14:10:38;9.60;99.90
25923;DHT22;13725;51.170;4.442;2022-12-15T14:13:27;9.70;99.90
25923;DHT22;13725;51.170;4.442;2022-12-15T14:18:33;9.40;99.90
25923;DHT22;13725;51.170;4.442;2022-12-15T14:21:02;8.80;99.90
25923;DHT22;13725;51.170;4.442;2022-12-15T14:23:38;8.40;99.90
25923;DHT22;13725;51.170;4.442;2022-12-15T14:26:07;8.20;99.90
25923;DHT22;13725;51.170;4.442;2022-12-15T14:28:35;8.00;99.90
25923;DHT22;13725;51.170;4.442;2022-12-15T14:31:17;7.70;99.90
25923;DHT22;13725;51.170;4.442;2022-12-15T14:33:46;7.30;99.90
25923;DHT22;13725;51.170;4.442;2022-12-15T14:36:13;7.00;99.90
25923;DHT22;13725;51.170;4.442;2022-12-15T14:39:00;6.60;99.90
25923;DHT22;13725;51.170;4.442;2022-12-15T14:41:32;6.30;99.90
25923;DHT22;13725;51.170;4.442;2022-12-15T14:46:47;5.70;99.90
25923;DHT22;13725;51.170;4.442;2022-12-15T14:49:19;5.60;99.90
25923;DHT22;13725;51.170;4.442;2022-12-15T14:51:47;5.50;99.90
25923;DHT22;13725;51.170;4.442;2022-12-15T14:54:35;5.40;99.90
25923;DHT22;13725;51.170;4.442;2022-12-15T14:57:12;5.30;99.90
25923;DHT22;13725;51.170;4.442;2022-12-15T14:59:41;5.20;99.90
25923;DHT22;13725;51.170;4.442;2022-12-15T15:02:22;5.10;99.90
25923;DHT22;13725;51.170;4.442;2022-12-15T15:04:57;5.00;99.90
25923;DHT22;13725;51.170;4.442;2022-12-15T15:07:25;5.00;99.90
25923;DHT22;13725;51.170;4.442;2022-12-15T15:09:52;4.70;99.90
25923;DHT22;13725;51.170;4.442;2022-12-15T15:12:20;4.50;99.90
25923;DHT22;13725;51.170;4.442;2022-12-15T15:19:58;3.80;99.90
25923;DHT22;13725;51.170;4.442;2022-12-15T15:22:27;3.60;99.90
25923;DHT22;13725;51.170;4.442;2022-12-15T15:24:56;3.50;99.90
25923;DHT22;13725;51.170;4.442;2022-12-15T15:27:33;3.30;99.90
25923;DHT22;13725;51.170;4.442;2022-12-15T15:30:15;3.20;99.90
25923;DHT22;13725;51.170;4.442;2022-12-15T15:32:53;3.00;99.90
25923;DHT22;13725;51.170;4.442;2022-12-15T15:35:20;2.90;99.90
25923;DHT22;13725;51.170;4.442;2022-12-15T15:37:46;2.70;99.90
25923;DHT22;13725;51.170;4.442;2022-12-15T15:40:13;2.60;99.90
25923;DHT22;13725;51.170;4.442;2022-12-15T15:42:41;2.60;99.90
25923;DHT22;13725;51.170;4.442;2022-12-15T15:45:11;2.40;99.90
25923;DHT22;13725;51.170;4.442;2022-12-15T15:47:49;2.30;99.90
25923;DHT22;13725;51.170;4.442;2022-12-15T15:50:20;2.20;99.90
25923;DHT22;13725;51.170;4.442;2022-12-15T15:52:49;2.10;99.90
25923;DHT22;13725;51.170;4.442;2022-12-15T15:55:19;2.10;99.90
25923;DHT22;13725;51.170;4.442;2022-12-15T15:57:45;2.00;99.90
25923;DHT22;13725;51.170;4.442;2022-12-15T16:00:19;1.90;99.90
25923;DHT22;13725;51.170;4.442;2022-12-15T16:02:47;1.90;99.90
25923;DHT22;13725;51.170;4.442;2022-12-15T16:05:13;1.80;99.90
25923;DHT22;13725;51.170;4.442;2022-12-15T16:07:39;1.70;99.90
25923;DHT22;13725;51.170;4.442;2022-12-15T16:10:14;1.60;99.90
25923;DHT22;13725;51.170;4.442;2022-12-15T16:12:47;1.60;99.90
25923;DHT22;13725;51.170;4.442;2022-12-15T16:15:40;1.50;99.90
25923;DHT22;13725;51.170;4.442;2022-12-15T16:18:06;1.40;99.90
25923;DHT22;13725;51.170;4.442;2022-12-15T16:20:32;1.40;99.90
25923;DHT22;13725;51.170;4.442;2022-12-15T16:23:04;1.30;99.90
25923;DHT22;13725;51.170;4.442;2022-12-15T16:25:37;1.20;99.90
25923;DHT22;13725;51.170;4.442;2022-12-15T16:28:17;1.20;99.90
25923;DHT22;13725;51.170;4.442;2022-12-15T16:30:44;1.10;99.90
25923;DHT22;13725;51.170;4.442;2022-12-15T16:33:10;1.00;99.90
25923;DHT22;13725;51.170;4.442;2022-12-15T16:35:36;1.00;99.90
25923;DHT22;13725;51.170;4.442;2022-12-15T16:38:04;0.90;99.90
25923;DHT22;13725;51.170;4.442;2022-12-15T16:40:30;0.80;99.90
25923;DHT22;13725;51.170;4.442;2022-12-15T16:43:01;0.80;99.90
25923;DHT22;13725;51.170;4.442;2022-12-15T16:45:29;0.80;99.90
25923;DHT22;13725;51.170;4.442;2022-12-15T16:47:56;0.70;99.90
25923;DHT22;13725;51.170;4.442;2022-12-15T16:50:34;0.70;99.90
25923;DHT22;13725;51.170;4.442;2022-12-15T16:53:00;0.60;99.90
25923;DHT22;13725;51.170;4.442;2022-12-15T16:55:30;0.60;99.90
25923;DHT22;13725;51.170;4.442;2022-12-15T16:58:00;0.60;99.90
25923;DHT22;13725;51.170;4.442;2022-12-15T17:00:29;0.50;99.90
25923;DHT22;13725;51.170;4.442;2022-12-15T17:02:55;0.50;99.90
25923;DHT22;13725;51.170;4.442;2022-12-15T17:05:25;0.50;99.90
25923;DHT22;13725;51.170;4.442;2022-12-15T17:07:58;0.50;99.90
25923;DHT22;13725;51.170;4.442;2022-12-15T17:10:27;0.40;99.90
25923;DHT22;13725;51.170;4.442;2022-12-15T17:13:10;0.40;99.90
25923;DHT22;13725;51.170;4.442;2022-12-15T17:15:38;0.40;99.90
25923;DHT22;13725;51.170;4.442;2022-12-15T17:18:04;0.40;99.90
25923;DHT22;13725;51.170;4.442;2022-12-15T17:20:31;0.40;99.90
25923;DHT22;13725;51.170;4.442;2022-12-15T17:23:03;0.40;99.90
25923;DHT22;13725;51.170;4.442;2022-12-15T17:25:43;0.40;99.90
25923;DHT22;13725;51.170;4.442;2022-12-15T17:30:41;0.30;99.90
25923;DHT22;13725;51.170;4.442;2022-12-15T17:33:26;0.20;99.90
25923;DHT22;13725;51.170;4.442;2022-12-15T17:35:55;0.20;99.90
25923;DHT22;13725;51.170;4.442;2022-12-15T17:38:23;0.10;99.90
25923;DHT22;13725;51.170;4.442;2022-12-15T17:40:50;0.10;99.90
25923;DHT22;13725;51.170;4.442;2022-12-15T17:43:21;0.10;99.90
25923;DHT22;13725;51.170;4.442;2022-12-15T17:45:48;0.10;99.90
25923;DHT22;13725;51.170;4.442;2022-12-15T17:48:15;0.00;99.90
25923;DHT22;13725;51.170;4.442;2022-12-15T17:50:42;0.00;99.90
25923;DHT22;13725;51.170;4.442;2022-12-15T17:53:11;-0.10;99.90
25923;DHT22;13725;51.170;4.442;2022-12-15T17:55:37;-0.10;99.90
25923;DHT22;13725;51.170;4.442;2022-12-15T17:58:20;-0.20;99.90
25923;DHT22;13725;51.170;4.442;2022-12-15T18:00:53;-0.20;99.90